sensor_id;sensor_type;location;lat;lon;timestamp;pressure;altitude;pressure_sealevel;temperature;humidity
37170;BME280;23062;13.952;100.608;2022-10-30T00:03:58;752.23;;;-142.63;57.26
37170;BME280;23062;13.952;100.608;2022-10-30T00:08:49;752.27;;;-142.63;57.07
37170;BME280;23062;13.952;100.608;2022-10-30T00:13:38;752.43;;;-142.63;57.82
37170;BME280;23062;13.952;100.608;2022-10-30T00:18:26;752.39;;;-142.63;59.84
37170;BME280;23062;13.952;100.608;2022-10-30T00:23:15;752.16;;;-142.63;59.20
37170;BME280;23062;13.952;100.608;2022-10-30T00:28:05;752.13;;;-142.63;59.10
37170;BME280;23062;13.952;100.608;2022-10-30T00:32:53;752.13;;;-142.63;58.85
37170;BME280;23062;13.952;100.608;2022-10-30T00:37:42;752.27;;;-142.63;59.07
37170;BME280;23062;13.952;100.608;2022-10-30T00:42:31;752.35;;;-142.63;58.14
37170;BME280;23062;13.952;100.608;2022-10-30T00:47:30;752.41;;;-142.63;57.29
37170;BME280;23062;13.952;100.608;2022-10-30T00:52:20;751.99;;;-142.63;55.78
37170;BME280;23062;13.952;100.608;2022-10-30T00:57:10;751.86;;;-142.63;54.19
37170;BME280;23062;13.952;100.608;2022-10-30T01:01:59;751.82;;;-142.63;54.43
37170;BME280;23062;13.952;100.608;2022-10-30T01:06:50;751.85;;;-142.63;54.56
37170;BME280;23062;13.952;100.608;2022-10-30T01:11:40;751.93;;;-142.63;53.96
37170;BME280;23062;13.952;100.608;2022-10-30T01:16:49;751.85;;;-142.63;53.40
37170;BME280;23062;13.952;100.608;2022-10-30T01:37:19;751.51;;;-142.63;52.69
37170;BME280;23062;13.952;100.608;2022-10-30T01:47:33;751.32;;;-142.63;52.26
37170;BME280;23062;13.952;100.608;2022-10-30T01:58:15;751.17;;;-142.63;51.52
37170;BME280;23062;13.952;100.608;2022-10-30T02:03:01;751.18;;;-142.63;51.30
37170;BME280;23062;13.952;100.608;2022-10-30T02:07:53;751.29;;;-142.63;50.44
37170;BME280;23062;13.952;100.608;2022-10-30T02:12:41;751.14;;;-142.63;50.46
37170;BME280;23062;13.952;100.608;2022-10-30T02:17:30;751.00;;;-142.63;50.76
37170;BME280;23062;13.952;100.608;2022-10-30T02:22:19;750.94;;;-142.63;50.12
37170;BME280;23062;13.952;100.608;2022-10-30T02:27:07;750.90;;;-142.63;49.86
37170;BME280;23062;13.952;100.608;2022-10-30T02:31:56;750.85;;;-142.63;50.14
37170;BME280;23062;13.952;100.608;2022-10-30T02:36:44;750.77;;;-142.63;50.06
37170;BME280;23062;13.952;100.608;2022-10-30T02:41:33;750.68;;;-142.63;49.03
37170;BME280;23062;13.952;100.608;2022-10-30T02:46:22;750.71;;;-142.63;48.59
37170;BME280;23062;13.952;100.608;2022-10-30T02:51:11;750.63;;;-142.63;48.84
37170;BME280;23062;13.952;100.608;2022-10-30T02:56:09;750.59;;;-142.63;48.67
37170;BME280;23062;13.952;100.608;2022-10-30T03:01:03;750.55;;;-142.63;48.96
37170;BME280;23062;13.952;100.608;2022-10-30T03:05:47;750.44;;;-142.63;48.58
37170;BME280;23062;13.952;100.608;2022-10-30T03:10:35;750.35;;;-142.63;48.00
37170;BME280;23062;13.952;100.608;2022-10-30T03:15:24;750.08;;;-142.63;46.75
37170;BME280;23062;13.952;100.608;2022-10-30T03:20:14;750.05;;;-142.63;46.33
37170;BME280;23062;13.952;100.608;2022-10-30T03:25:03;749.86;;;-142.63;45.97
37170;BME280;23062;13.952;100.608;2022-10-30T03:29:52;749.85;;;-142.63;45.44
37170;BME280;23062;13.952;100.608;2022-10-30T03:34:41;749.92;;;-142.63;46.33
37170;BME280;23062;13.952;100.608;2022-10-30T03:39:30;749.88;;;-142.63;46.71
37170;BME280;23062;13.952;100.608;2022-10-30T03:44:18;749.91;;;-142.63;46.76
37170;BME280;23062;13.952;100.608;2022-10-30T03:49:07;749.83;;;-142.63;46.50
37170;BME280;23062;13.952;100.608;2022-10-30T03:53:55;749.79;;;-142.63;46.55
37170;BME280;23062;13.952;100.608;2022-10-30T03:58:44;749.74;;;-142.63;46.58
37170;BME280;23062;13.952;100.608;2022-10-30T04:03:33;749.69;;;-142.63;46.65
37170;BME280;23062;13.952;100.608;2022-10-30T04:08:22;749.56;;;-142.63;46.54
37170;BME280;23062;13.952;100.608;2022-10-30T04:13:11;749.57;;;-142.63;46.36
37170;BME280;23062;13.952;100.608;2022-10-30T04:18:00;749.47;;;-142.63;46.54
37170;BME280;23062;13.952;100.608;2022-10-30T04:22:54;749.37;;;-142.63;45.95
37170;BME280;23062;13.952;100.608;2022-10-30T04:27:42;749.37;;;-142.63;46.21
37170;BME280;23062;13.952;100.608;2022-10-30T04:32:31;749.14;;;-142.63;45.94
37170;BME280;23062;13.952;100.608;2022-10-30T04:37:20;749.02;;;-142.63;45.89
37170;BME280;23062;13.952;100.608;2022-10-30T04:42:09;748.91;;;-142.63;45.97
37170;BME280;23062;13.952;100.608;2022-10-30T04:52:03;748.54;;;-142.63;45.57
37170;BME280;23062;13.952;100.608;2022-10-30T04:56:53;748.46;;;-142.63;45.27
37170;BME280;23062;13.952;100.608;2022-10-30T05:01:41;748.45;;;-142.63;44.87
37170;BME280;23062;13.952;100.608;2022-10-30T05:06:30;748.43;;;-142.63;45.21
37170;BME280;23062;13.952;100.608;2022-10-30T05:11:19;748.03;;;-142.63;44.88
37170;BME280;23062;13.952;100.608;2022-10-30T05:16:08;747.94;;;-142.63;44.31
37170;BME280;23062;13.952;100.608;2022-10-30T05:20:57;747.82;;;-142.63;44.03
37170;BME280;23062;13.952;100.608;2022-10-30T05:25:45;747.85;;;-142.63;44.72
37170;BME280;23062;13.952;100.608;2022-10-30T05:30:35;747.82;;;-142.63;45.00
37170;BME280;23062;13.952;100.608;2022-10-30T05:35:24;747.62;;;-142.63;44.97
37170;BME280;23062;13.952;100.608;2022-10-30T05:40:12;747.56;;;-142.63;45.32
37170;BME280;23062;13.952;100.608;2022-10-30T05:45:01;747.28;;;-142.63;44.60
37170;BME280;23062;13.952;100.608;2022-10-30T05:49:51;747.35;;;-142.63;45.09
37170;BME280;23062;13.952;100.608;2022-10-30T05:54:41;747.24;;;-142.63;44.52
37170;BME280;23062;13.952;100.608;2022-10-30T05:59:30;747.16;;;-142.63;44.62
37170;BME280;23062;13.952;100.608;2022-10-30T06:04:19;747.20;;;-142.63;44.96
37170;BME280;23062;13.952;100.608;2022-10-30T06:09:09;747.03;;;-142.63;45.17
37170;BME280;23062;13.952;100.608;2022-10-30T06:13:58;747.13;;;-142.63;45.80
37170;BME280;23062;13.952;100.608;2022-10-30T06:18:46;746.89;;;-142.63;44.99
37170;BME280;23062;13.952;100.608;2022-10-30T06:23:36;746.75;;;-142.63;44.51
37170;BME280;23062;13.952;100.608;2022-10-30T06:28:25;746.85;;;-142.63;44.73
37170;BME280;23062;13.952;100.608;2022-10-30T06:33:13;746.63;;;-142.63;44.47
37170;BME280;23062;13.952;100.608;2022-10-30T06:38:02;746.48;;;-142.63;43.93
37170;BME280;23062;13.952;100.608;2022-10-30T06:42:53;746.47;;;-142.63;43.83
37170;BME280;23062;13.952;100.608;2022-10-30T06:47:42;746.34;;;-142.63;43.66
37170;BME280;23062;13.952;100.608;2022-10-30T06:52:31;746.08;;;-142.63;42.97
37170;BME280;23062;13.952;100.608;2022-10-30T06:57:19;746.22;;;-142.63;43.48
37170;BME280;23062;13.952;100.608;2022-10-30T07:02:09;746.12;;;-142.63;43.64
37170;BME280;23062;13.952;100.608;2022-10-30T07:06:58;746.13;;;-142.63;43.83
37170;BME280;23062;13.952;100.608;2022-10-30T07:11:47;746.01;;;-142.63;43.67
37170;BME280;23062;13.952;100.608;2022-10-30T07:16:36;745.88;;;-142.63;43.49
37170;BME280;23062;13.952;100.608;2022-10-30T07:21:26;745.79;;;-142.63;43.62
37170;BME280;23062;13.952;100.608;2022-10-30T07:26:16;745.83;;;-142.63;44.03
37170;BME280;23062;13.952;100.608;2022-10-30T07:31:05;745.87;;;-142.63;44.27
37170;BME280;23062;13.952;100.608;2022-10-30T07:35:54;745.50;;;-142.63;43.13
37170;BME280;23062;13.952;100.608;2022-10-30T07:40:43;745.55;;;-142.63;43.44
37170;BME280;23062;13.952;100.608;2022-10-30T07:45:33;745.45;;;-142.63;43.43
37170;BME280;23062;13.952;100.608;2022-10-30T07:50:22;745.46;;;-142.63;43.75
37170;BME280;23062;13.952;100.608;2022-10-30T07:55:13;745.37;;;-142.63;43.77
37170;BME280;23062;13.952;100.608;2022-10-30T08:00:07;745.45;;;-142.63;44.03
37170;BME280;23062;13.952;100.608;2022-10-30T08:04:56;745.47;;;-142.63;44.04
37170;BME280;23062;13.952;100.608;2022-10-30T08:09:45;745.51;;;-142.63;44.37
37170;BME280;23062;13.952;100.608;2022-10-30T08:14:33;745.51;;;-142.63;44.23
37170;BME280;23062;13.952;100.608;2022-10-30T08:19:22;745.56;;;-142.63;44.49
37170;BME280;23062;13.952;100.608;2022-10-30T08:24:11;745.71;;;-142.63;45.18
37170;BME280;23062;13.952;100.608;2022-10-30T08:28:59;745.72;;;-142.63;45.53
37170;BME280;23062;13.952;100.608;2022-10-30T08:33:48;745.76;;;-142.63;45.92
37170;BME280;23062;13.952;100.608;2022-10-30T08:38:36;745.73;;;-142.63;46.19
37170;BME280;23062;13.952;100.608;2022-10-30T08:43:27;745.76;;;-142.63;46.56
37170;BME280;23062;13.952;100.608;2022-10-30T08:48:17;745.74;;;-142.63;46.78
37170;BME280;23062;13.952;100.608;2022-10-30T08:53:10;745.75;;;-142.63;46.92
37170;BME280;23062;13.952;100.608;2022-10-30T08:57:58;745.78;;;-142.63;47.13
37170;BME280;23062;13.952;100.608;2022-10-30T09:02:49;745.53;;;-142.63;45.75
37170;BME280;23062;13.952;100.608;2022-10-30T09:07:39;745.55;;;-142.63;44.81
37170;BME280;23062;13.952;100.608;2022-10-30T09:12:29;745.44;;;-142.63;43.84
37170;BME280;23062;13.952;100.608;2022-10-30T09:17:18;745.53;;;-142.63;43.66
37170;BME280;23062;13.952;100.608;2022-10-30T09:22:09;745.52;;;-142.63;43.25
37170;BME280;23062;13.952;100.608;2022-10-30T09:26:58;745.55;;;-142.63;43.35
37170;BME280;23062;13.952;100.608;2022-10-30T09:31:47;745.60;;;-142.63;43.83
37170;BME280;23062;13.952;100.608;2022-10-30T09:36:36;745.75;;;-142.63;43.95
37170;BME280;23062;13.952;100.608;2022-10-30T10:02:26;746.04;;;-142.63;45.27
37170;BME280;23062;13.952;100.608;2022-10-30T10:07:21;746.18;;;-142.63;45.65
37170;BME280;23062;13.952;100.608;2022-10-30T10:17:08;746.31;;;-142.63;46.22
37170;BME280;23062;13.952;100.608;2022-10-30T10:22:00;746.38;;;-142.63;46.75
37170;BME280;23062;13.952;100.608;2022-10-30T10:37:51;746.48;;;-142.63;46.77
37170;BME280;23062;13.952;100.608;2022-10-30T10:42:51;746.57;;;-142.63;46.36
37170;BME280;23062;13.952;100.608;2022-10-30T10:52:49;746.64;;;-142.63;46.55
37170;BME280;23062;13.952;100.608;2022-10-30T10:57:39;746.73;;;-142.63;46.84
37170;BME280;23062;13.952;100.608;2022-10-30T11:07:50;746.77;;;-142.63;47.39
37170;BME280;23062;13.952;100.608;2022-10-30T11:12:39;746.82;;;-142.63;47.51
37170;BME280;23062;13.952;100.608;2022-10-30T11:22:28;746.96;;;-142.63;48.19
37170;BME280;23062;13.952;100.608;2022-10-30T11:27:25;746.98;;;-142.63;48.32
37170;BME280;23062;13.952;100.608;2022-10-30T11:32:18;747.05;;;-142.63;48.58
37170;BME280;23062;13.952;100.608;2022-10-30T11:37:27;747.10;;;-142.63;48.85
37170;BME280;23062;13.952;100.608;2022-10-30T11:42:16;747.12;;;-142.63;49.15
37170;BME280;23062;13.952;100.608;2022-10-30T11:47:06;747.14;;;-142.63;49.35
37170;BME280;23062;13.952;100.608;2022-10-30T11:51:56;747.12;;;-142.63;49.49
37170;BME280;23062;13.952;100.608;2022-10-30T11:56:47;747.17;;;-142.63;49.69
37170;BME280;23062;13.952;100.608;2022-10-30T12:01:37;747.23;;;-142.63;49.80
37170;BME280;23062;13.952;100.608;2022-10-30T12:06:29;747.22;;;-142.63;49.90
37170;BME280;23062;13.952;100.608;2022-10-30T12:11:18;747.24;;;-142.63;49.95
37170;BME280;23062;13.952;100.608;2022-10-30T12:16:11;747.33;;;-142.63;50.20
37170;BME280;23062;13.952;100.608;2022-10-30T12:20:58;747.32;;;-142.63;50.36
37170;BME280;23062;13.952;100.608;2022-10-30T12:25:47;747.44;;;-142.63;50.59
37170;BME280;23062;13.952;100.608;2022-10-30T12:30:38;747.59;;;-142.63;50.72
37170;BME280;23062;13.952;100.608;2022-10-30T12:40:40;747.68;;;-142.63;49.45
37170;BME280;23062;13.952;100.608;2022-10-30T12:45:27;747.69;;;-142.63;47.79
37170;BME280;23062;13.952;100.608;2022-10-30T12:50:22;747.82;;;-142.63;47.70
37170;BME280;23062;13.952;100.608;2022-10-30T12:55:37;747.83;;;-142.63;48.51
37170;BME280;23062;13.952;100.608;2022-10-30T13:00:25;747.78;;;-142.63;48.64
37170;BME280;23062;13.952;100.608;2022-10-30T13:15:30;747.73;;;-142.63;48.13
37170;BME280;23062;13.952;100.608;2022-10-30T13:20:20;747.74;;;-142.63;48.34
37170;BME280;23062;13.952;100.608;2022-10-30T13:30:20;747.80;;;-142.63;48.42
37170;BME280;23062;13.952;100.608;2022-10-30T13:35:31;747.90;;;-142.63;48.56
37170;BME280;23062;13.952;100.608;2022-10-30T13:40:34;747.93;;;-142.63;48.75
37170;BME280;23062;13.952;100.608;2022-10-30T13:50:37;748.05;;;-142.63;48.68
37170;BME280;23062;13.952;100.608;2022-10-30T13:55:26;748.08;;;-142.63;48.98
37170;BME280;23062;13.952;100.608;2022-10-30T14:05:57;748.16;;;-142.63;48.94
37170;BME280;23062;13.952;100.608;2022-10-30T14:10:55;748.18;;;-142.63;48.88
37170;BME280;23062;13.952;100.608;2022-10-30T14:15:43;748.18;;;-142.63;49.18
37170;BME280;23062;13.952;100.608;2022-10-30T14:20:32;748.26;;;-142.63;48.99
37170;BME280;23062;13.952;100.608;2022-10-30T14:25:21;748.31;;;-142.63;49.09
37170;BME280;23062;13.952;100.608;2022-10-30T14:30:21;748.36;;;-142.63;49.12
37170;BME280;23062;13.952;100.608;2022-10-30T14:35:26;748.32;;;-142.63;49.05
37170;BME280;23062;13.952;100.608;2022-10-30T14:40:54;748.30;;;-142.63;49.02
37170;BME280;23062;13.952;100.608;2022-10-30T14:45:49;748.35;;;-142.63;49.06
37170;BME280;23062;13.952;100.608;2022-10-30T14:56:04;748.35;;;-142.63;49.01
37170;BME280;23062;13.952;100.608;2022-10-30T15:05:51;748.27;;;-142.63;49.07
37170;BME280;23062;13.952;100.608;2022-10-30T15:10:46;748.33;;;-142.63;48.97
37170;BME280;23062;13.952;100.608;2022-10-30T15:15:31;748.27;;;-142.63;49.03
37170;BME280;23062;13.952;100.608;2022-10-30T15:20:25;748.24;;;-142.63;49.07
37170;BME280;23062;13.952;100.608;2022-10-30T15:25:19;748.29;;;-142.63;49.00
37170;BME280;23062;13.952;100.608;2022-10-30T15:30:13;748.27;;;-142.63;49.02
37170;BME280;23062;13.952;100.608;2022-10-30T15:35:03;748.27;;;-142.63;49.05
37170;BME280;23062;13.952;100.608;2022-10-30T15:44:58;748.35;;;-142.63;48.96
37170;BME280;23062;13.952;100.608;2022-10-30T15:49:49;748.30;;;-142.63;48.85
37170;BME280;23062;13.952;100.608;2022-10-30T15:54:39;748.34;;;-142.63;48.87
37170;BME280;23062;13.952;100.608;2022-10-30T15:59:30;748.40;;;-142.63;49.01
37170;BME280;23062;13.952;100.608;2022-10-30T16:04:23;748.42;;;-142.63;49.17
37170;BME280;23062;13.952;100.608;2022-10-30T16:09:13;748.42;;;-142.63;49.04
37170;BME280;23062;13.952;100.608;2022-10-30T16:14:06;748.43;;;-142.63;49.01
37170;BME280;23062;13.952;100.608;2022-10-30T16:19:00;748.48;;;-142.63;48.99
37170;BME280;23062;13.952;100.608;2022-10-30T16:23:59;748.48;;;-142.63;49.06
37170;BME280;23062;13.952;100.608;2022-10-30T16:28:49;748.50;;;-142.63;49.11
37170;BME280;23062;13.952;100.608;2022-10-30T16:33:38;748.48;;;-142.63;49.16
37170;BME280;23062;13.952;100.608;2022-10-30T16:38:32;748.46;;;-142.63;49.09
37170;BME280;23062;13.952;100.608;2022-10-30T16:43:25;748.49;;;-142.63;48.98
37170;BME280;23062;13.952;100.608;2022-10-30T16:48:16;748.49;;;-142.63;49.08
37170;BME280;23062;13.952;100.608;2022-10-30T16:53:06;748.57;;;-142.63;49.15
37170;BME280;23062;13.952;100.608;2022-10-30T16:57:57;748.60;;;-142.63;49.12
37170;BME280;23062;13.952;100.608;2022-10-30T17:02:48;748.58;;;-142.63;49.11
37170;BME280;23062;13.952;100.608;2022-10-30T17:07:37;748.54;;;-142.63;49.18
37170;BME280;23062;13.952;100.608;2022-10-30T17:12:27;748.52;;;-142.63;49.12
37170;BME280;23062;13.952;100.608;2022-10-30T17:17:30;748.52;;;-142.63;49.06
37170;BME280;23062;13.952;100.608;2022-10-30T17:22:20;748.53;;;-142.63;49.27
37170;BME280;23062;13.952;100.608;2022-10-30T17:27:27;748.51;;;-142.63;49.22
37170;BME280;23062;13.952;100.608;2022-10-30T17:32:26;748.49;;;-142.63;49.24
37170;BME280;23062;13.952;100.608;2022-10-30T17:37:14;748.45;;;-142.63;49.21
37170;BME280;23062;13.952;100.608;2022-10-30T17:42:03;748.41;;;-142.63;49.20
37170;BME280;23062;13.952;100.608;2022-10-30T17:46:52;748.43;;;-142.63;49.25
37170;BME280;23062;13.952;100.608;2022-10-30T17:51:41;748.34;;;-142.63;49.16
37170;BME280;23062;13.952;100.608;2022-10-30T17:56:31;748.29;;;-142.63;49.24
37170;BME280;23062;13.952;100.608;2022-10-30T18:01:23;748.32;;;-142.63;49.15
37170;BME280;23062;13.952;100.608;2022-10-30T18:06:16;748.26;;;-142.63;49.28
37170;BME280;23062;13.952;100.608;2022-10-30T18:11:05;748.25;;;-142.63;49.19
37170;BME280;23062;13.952;100.608;2022-10-30T18:15:56;748.21;;;-142.63;49.17
37170;BME280;23062;13.952;100.608;2022-10-30T18:20:46;748.20;;;-142.63;49.29
37170;BME280;23062;13.952;100.608;2022-10-30T18:25:35;748.20;;;-142.63;49.13
37170;BME280;23062;13.952;100.608;2022-10-30T18:30:24;748.17;;;-142.63;49.19
37170;BME280;23062;13.952;100.608;2022-10-30T18:35:29;748.19;;;-142.63;49.19
37170;BME280;23062;13.952;100.608;2022-10-30T18:40:18;748.18;;;-142.63;49.07
37170;BME280;23062;13.952;100.608;2022-10-30T18:45:15;748.18;;;-142.63;49.23
37170;BME280;23062;13.952;100.608;2022-10-30T18:50:04;748.08;;;-142.63;49.29
37170;BME280;23062;13.952;100.608;2022-10-30T18:54:53;748.07;;;-142.63;49.21
37170;BME280;23062;13.952;100.608;2022-10-30T18:59:41;748.07;;;-142.63;49.41
37170;BME280;23062;13.952;100.608;2022-10-30T19:04:30;748.04;;;-142.63;49.33
37170;BME280;23062;13.952;100.608;2022-10-30T19:09:19;747.99;;;-142.63;49.32
37170;BME280;23062;13.952;100.608;2022-10-30T19:14:12;747.99;;;-142.63;49.55
37170;BME280;23062;13.952;100.608;2022-10-30T19:19:01;747.99;;;-142.63;49.64
37170;BME280;23062;13.952;100.608;2022-10-30T19:23:50;747.93;;;-142.63;49.81
37170;BME280;23062;13.952;100.608;2022-10-30T19:28:39;747.91;;;-142.63;50.03
37170;BME280;23062;13.952;100.608;2022-10-30T19:33:27;747.88;;;-142.63;50.16
37170;BME280;23062;13.952;100.608;2022-10-30T19:38:15;747.89;;;-142.63;50.28
37170;BME280;23062;13.952;100.608;2022-10-30T19:43:04;747.86;;;-142.63;50.44
37170;BME280;23062;13.952;100.608;2022-10-30T19:47:55;747.85;;;-142.63;50.53
37170;BME280;23062;13.952;100.608;2022-10-30T19:52:44;747.81;;;-142.63;50.43
37170;BME280;23062;13.952;100.608;2022-10-30T19:57:32;747.80;;;-142.63;50.33
37170;BME280;23062;13.952;100.608;2022-10-30T20:02:21;747.79;;;-142.63;50.28
37170;BME280;23062;13.952;100.608;2022-10-30T20:07:10;747.78;;;-142.63;50.34
37170;BME280;23062;13.952;100.608;2022-10-30T20:11:58;747.80;;;-142.63;50.49
37170;BME280;23062;13.952;100.608;2022-10-30T20:21:52;747.91;;;-142.63;51.16
37170;BME280;23062;13.952;100.608;2022-10-30T20:26:41;747.87;;;-142.63;51.21
37170;BME280;23062;13.952;100.608;2022-10-30T20:31:30;747.90;;;-142.63;51.34
37170;BME280;23062;13.952;100.608;2022-10-30T20:36:19;747.92;;;-142.63;51.52
37170;BME280;23062;13.952;100.608;2022-10-30T20:41:17;748.08;;;-142.63;51.85
37170;BME280;23062;13.952;100.608;2022-10-30T20:45:58;748.66;;;-142.63;53.04
37170;BME280;23062;13.952;100.608;2022-10-30T20:50:47;748.75;;;-142.63;53.54
37170;BME280;23062;13.952;100.608;2022-10-30T20:55:36;748.77;;;-142.63;53.71
37170;BME280;23062;13.952;100.608;2022-10-30T21:00:25;748.83;;;-142.63;53.98
37170;BME280;23062;13.952;100.608;2022-10-30T21:05:13;748.82;;;-142.63;54.13
37170;BME280;23062;13.952;100.608;2022-10-30T21:10:01;748.90;;;-142.63;54.43
37170;BME280;23062;13.952;100.608;2022-10-30T21:14:50;748.97;;;-142.63;54.79
37170;BME280;23062;13.952;100.608;2022-10-30T21:19:39;749.02;;;-142.63;54.88
37170;BME280;23062;13.952;100.608;2022-10-30T21:24:27;749.02;;;-142.63;54.87
37170;BME280;23062;13.952;100.608;2022-10-30T21:29:16;749.02;;;-142.63;54.80
37170;BME280;23062;13.952;100.608;2022-10-30T21:34:05;749.02;;;-142.63;54.73
37170;BME280;23062;13.952;100.608;2022-10-30T21:38:53;749.13;;;-142.63;54.99
37170;BME280;23062;13.952;100.608;2022-10-30T21:43:42;749.20;;;-142.63;55.04
37170;BME280;23062;13.952;100.608;2022-10-30T21:48:30;749.24;;;-142.63;54.96
37170;BME280;23062;13.952;100.608;2022-10-30T21:53:19;749.18;;;-142.63;54.86
37170;BME280;23062;13.952;100.608;2022-10-30T21:58:08;749.18;;;-142.63;55.07
37170;BME280;23062;13.952;100.608;2022-10-30T22:02:56;749.18;;;-142.63;55.16
37170;BME280;23062;13.952;100.608;2022-10-30T22:07:45;749.13;;;-142.63;55.04
37170;BME280;23062;13.952;100.608;2022-10-30T22:12:33;749.92;;;-142.63;56.96
37170;BME280;23062;13.952;100.608;2022-10-30T22:17:21;750.10;;;-142.63;57.64
37170;BME280;23062;13.952;100.608;2022-10-30T22:22:10;750.28;;;-142.63;58.32
37170;BME280;23062;13.952;100.608;2022-10-30T22:26:59;750.55;;;-142.63;59.58
37170;BME280;23062;13.952;100.608;2022-10-30T22:31:48;750.55;;;-142.63;59.96
37170;BME280;23062;13.952;100.608;2022-10-30T22:36:36;750.61;;;-142.63;60.37
37170;BME280;23062;13.952;100.608;2022-10-30T22:41:25;750.55;;;-142.63;60.23
37170;BME280;23062;13.952;100.608;2022-10-30T22:46:15;750.64;;;-142.63;60.56
37170;BME280;23062;13.952;100.608;2022-10-30T22:51:06;750.85;;;-142.63;61.45
37170;BME280;23062;13.952;100.608;2022-10-30T22:55:54;750.48;;;-142.63;60.58
37170;BME280;23062;13.952;100.608;2022-10-30T23:00:44;749.96;;;-142.63;58.28
37170;BME280;23062;13.952;100.608;2022-10-30T23:05:33;749.77;;;-142.63;57.17
37170;BME280;23062;13.952;100.608;2022-10-30T23:10:21;749.71;;;-142.63;56.74
37170;BME280;23062;13.952;100.608;2022-10-30T23:15:11;749.71;;;-142.63;56.70
37170;BME280;23062;13.952;100.608;2022-10-30T23:20:00;749.74;;;-142.63;56.67
37170;BME280;23062;13.952;100.608;2022-10-30T23:24:48;749.86;;;-142.63;56.50
37170;BME280;23062;13.952;100.608;2022-10-30T23:29:37;749.85;;;-142.63;56.13
37170;BME280;23062;13.952;100.608;2022-10-30T23:34:26;749.87;;;-142.63;55.33
37170;BME280;23062;13.952;100.608;2022-10-30T23:39:16;749.92;;;-142.63;55.38
37170;BME280;23062;13.952;100.608;2022-10-30T23:44:09;749.99;;;-142.63;55.67
37170;BME280;23062;13.952;100.608;2022-10-30T23:48:56;750.04;;;-142.63;55.59
37170;BME280;23062;13.952;100.608;2022-10-30T23:53:44;750.10;;;-142.63;55.76
37170;BME280;23062;13.952;100.608;2022-10-30T23:58:33;750.14;;;-142.63;54.72
